Time;durP1;ratioP1;P1;durP2;ratioP2;P2;SDS_P1;SDS_P2;PMS_P1;PMS_P2;Temp;Humidity;BMP_temperature;BMP_pressure;BME280_temperature;BME280_humidity;BME280_pressure;Samples;Min_cycle;Max_cycle;Signal;HPM_P1;HPM_P2
2021/10/11 00:02:00;;;;;;;24.35;15.25;;;;;;;4.91;88.38;101644.94;5027658;28;20364;-81
2021/10/11 00:04:28;;;;;;;23.95;15.40;;;;;;;4.66;90.54;101641.91;5014496;28;20067;-84
2021/10/11 00:06:55;;;;;;;24.55;15.25;;;;;;;5.06;89.45;101631.56;5009891;28;20132;-80
2021/10/11 00:09:22;;;;;;;26.05;16.55;;;;;;;4.71;90.23;101634.00;5019091;28;20054;-80
2021/10/11 00:11:49;;;;;;;26.48;16.05;;;;;;;4.67;92.51;101630.56;5004214;28;20336;-80
2021/10/11 00:14:16;;;;;;;27.15;16.20;;;;;;;4.80;91.66;101631.22;5013890;28;20441;-82
2021/10/11 00:16:44;;;;;;;26.98;16.33;;;;;;;4.73;91.99;101627.88;5004567;28;20121;-82
2021/10/11 00:19:11;;;;;;;23.75;15.68;;;;;;;4.38;93.27;101628.50;5001220;28;20052;-81
2021/10/11 00:21:38;;;;;;;25.67;15.95;;;;;;;4.15;94.14;101641.06;4985168;28;20037;-82
2021/10/11 00:24:06;;;;;;;28.00;16.60;;;;;;;4.35;94.10;101631.16;5017086;28;20056;-83
2021/10/11 00:26:33;;;;;;;24.15;15.85;;;;;;;4.53;93.12;101619.53;4989422;28;20544;-83
2021/10/11 00:29:00;;;;;;;24.75;15.32;;;;;;;4.70;93.18;101619.25;5004294;28;20083;-82
2021/10/11 00:31:27;;;;;;;30.80;17.33;;;;;;;4.70;92.99;101620.09;5000496;28;20037;-82
2021/10/11 00:33:56;;;;;;;32.03;16.30;;;;;;;4.57;93.10;101627.28;5018080;28;20089;-81
2021/10/11 00:36:24;;;;;;;24.92;15.32;;;;;;;4.87;92.68;101629.38;4998233;28;20057;-83
2021/10/11 00:38:51;;;;;;;29.52;15.57;;;;;;;4.55;93.31;101629.06;4996901;28;20045;-81
2021/10/11 00:41:18;;;;;;;31.52;15.77;;;;;;;4.63;94.31;101628.06;5025290;28;20133;-80
2021/10/11 00:43:47;;;;;;;22.48;14.75;;;;;;;4.60;93.54;101618.56;5044501;28;20036;-82
2021/10/11 00:46:14;;;;;;;28.27;17.20;;;;;;;4.43;94.01;101624.06;5000028;28;20080;-81
2021/10/11 00:48:41;;;;;;;28.55;16.77;;;;;;;4.31;96.17;101626.88;5025116;28;20171;-80
2021/10/11 00:51:08;;;;;;;26.10;16.45;;;;;;;4.42;96.49;101630.16;5018095;28;20456;-79
2021/10/11 00:53:35;;;;;;;22.20;16.08;;;;;;;4.69;94.68;101621.00;5034610;28;20054;-79
2021/10/11 00:56:03;;;;;;;27.23;17.05;;;;;;;4.90;93.41;101614.47;4997651;28;20047;-82
2021/10/11 00:58:30;;;;;;;27.98;16.95;;;;;;;4.90;93.09;101611.03;5042125;28;20052;-77
2021/10/11 01:00:57;;;;;;;25.33;15.85;;;;;;;4.93;94.00;101608.34;5003045;28;20033;-83
2021/10/11 01:03:25;;;;;;;26.73;16.02;;;;;;;5.11;92.51;101596.69;5012335;28;20112;-86
2021/10/11 01:05:52;;;;;;;22.85;15.57;;;;;;;4.92;93.53;101591.00;4994154;28;20053;-83
2021/10/11 01:08:20;;;;;;;32.38;17.85;;;;;;;4.57;94.50;101597.75;5040991;28;20117;-83
2021/10/11 01:10:47;;;;;;;28.02;17.40;;;;;;;4.35;96.99;101586.84;5012473;28;20136;-82
2021/10/11 01:13:15;;;;;;;33.92;19.17;;;;;;;4.22;97.43;101577.50;5023578;28;20477;-80
2021/10/11 01:15:42;;;;;;;25.48;16.58;;;;;;;4.38;97.53;101575.50;5012330;28;20075;-82
2021/10/11 01:18:09;;;;;;;30.98;17.67;;;;;;;4.32;96.96;101568.63;5016195;28;20065;-82
2021/10/11 01:20:36;;;;;;;28.65;17.52;;;;;;;4.07;97.97;101566.47;4993215;28;20038;-80
2021/10/11 01:23:04;;;;;;;33.50;18.33;;;;;;;3.84;99.24;101570.34;5017375;28;20530;-81
2021/10/11 01:25:31;;;;;;;26.73;16.38;;;;;;;3.95;100.00;101569.28;5012488;28;20073;-84
2021/10/11 01:27:58;;;;;;;30.88;17.13;;;;;;;3.96;100.00;101560.59;5017139;28;20041;-79
2021/10/11 01:30:25;;;;;;;29.38;17.30;;;;;;;4.10;99.37;101554.25;5008959;28;20045;-83
2021/10/11 01:32:55;;;;;;;24.80;16.40;;;;;;;4.12;99.26;101544.69;5013125;28;20087;-80
2021/10/11 01:35:22;;;;;;;26.00;16.20;;;;;;;4.35;98.52;101544.28;4991925;28;20034;-83
2021/10/11 01:37:50;;;;;;;27.65;16.35;;;;;;;4.37;98.69;101524.22;5022356;28;20473;-80
2021/10/11 01:40:19;;;;;;;30.58;16.55;;;;;;;4.43;97.37;101525.00;4994358;28;20481;-82
2021/10/11 01:42:47;;;;;;;24.98;17.05;;;;;;;4.27;98.48;101515.72;5024517;28;20053;-81
2021/10/11 01:45:14;;;;;;;26.70;16.17;;;;;;;4.24;99.07;101508.84;5002293;28;20418;-80
2021/10/11 01:47:42;;;;;;;30.40;17.02;;;;;;;4.29;98.53;101508.75;5020514;28;20452;-82
2021/10/11 01:50:09;;;;;;;28.50;18.10;;;;;;;4.05;99.27;101515.25;4993226;28;20041;-80
2021/10/11 01:52:39;;;;;;;27.60;16.70;;;;;;;3.85;100.00;101519.97;5026075;28;20076;-78
2021/10/11 01:55:08;;;;;;;28.13;16.95;;;;;;;3.84;100.00;101526.06;4985449;28;20049;-79
2021/10/11 01:57:36;;;;;;;28.13;17.02;;;;;;;3.83;100.00;101527.81;5018586;28;20049;-82
2021/10/11 02:00:06;;;;;;;27.40;16.52;;;;;;;4.00;100.00;101515.34;5012438;28;20421;-80
2021/10/11 02:02:34;;;;;;;26.08;16.27;;;;;;;4.24;99.00;101502.78;5020130;28;20120;-80
2021/10/11 02:05:02;;;;;;;26.83;16.95;;;;;;;4.44;98.15;101503.22;5011841;28;20057;-83
2021/10/11 02:07:30;;;;;;;22.60;16.50;;;;;;;4.31;98.54;101494.78;5016776;28;20037;-80
2021/10/11 02:09:57;;;;;;;24.33;16.30;;;;;;;4.43;98.06;101478.06;5012069;28;20057;-81
2021/10/11 02:12:24;;;;;;;28.08;16.35;;;;;;;4.56;98.27;101469.09;5033981;28;20069;-81
2021/10/11 02:14:52;;;;;;;28.15;15.32;;;;;;;4.53;97.62;101469.16;5009915;28;20409;-81
2021/10/11 02:17:19;;;;;;;26.85;17.55;;;;;;;4.47;97.97;101469.28;4998185;28;20128;-78
2021/10/11 02:19:46;;;;;;;26.83;16.40;;;;;;;4.35;98.35;101466.06;5027864;28;20062;-81
2021/10/11 02:22:13;;;;;;;31.25;16.70;;;;;;;4.28;98.91;101470.56;5018332;28;20444;-79
2021/10/11 02:24:41;;;;;;;27.50;16.83;;;;;;;4.28;99.07;101465.34;5030040;28;20049;-81
2021/10/11 02:27:08;;;;;;;30.70;17.10;;;;;;;4.20;99.17;101460.28;5031365;28;20115;-82
2021/10/11 02:29:35;;;;;;;28.27;16.92;;;;;;;4.68;97.52;101460.16;5013345;28;20116;-80
2021/10/11 02:32:02;;;;;;;27.30;16.63;;;;;;;4.71;95.66;101456.63;5031574;28;20144;-82
2021/10/11 02:34:30;;;;;;;28.67;16.48;;;;;;;4.93;95.94;101464.84;4978491;28;20576;-83
2021/10/11 02:36:57;;;;;;;25.42;15.05;;;;;;;5.32;92.87;101463.09;5020694;28;20095;-80
2021/10/11 02:39:24;;;;;;;25.73;15.52;;;;;;;5.53;91.35;101456.47;4991121;28;20116;-80
2021/10/11 02:41:53;;;;;;;31.08;15.80;;;;;;;5.52;90.47;101454.75;5007200;28;20144;-80
2021/10/11 02:44:20;;;;;;;25.15;14.85;;;;;;;5.41;91.41;101460.25;5022697;28;20045;-81
2021/10/11 02:46:47;;;;;;;30.73;15.85;;;;;;;5.47;89.74;101462.72;4995810;28;20140;-81
2021/10/11 02:49:14;;;;;;;24.42;15.23;;;;;;;5.73;88.06;101461.22;4996958;28;20040;-82
2021/10/11 02:51:42;;;;;;;24.48;14.85;;;;;;;5.74;87.91;101455.94;5019829;28;20140;-82
2021/10/11 02:54:09;;;;;;;25.80;14.57;;;;;;;5.93;86.71;101456.34;5016946;28;20064;-82
2021/10/11 02:56:36;;;;;;;23.77;14.68;;;;;;;5.97;86.70;101454.50;4997270;28;20046;-80
2021/10/11 02:59:03;;;;;;;25.00;16.08;;;;;;;5.84;86.72;101446.09;5016354;28;20033;-81
2021/10/11 03:01:31;;;;;;;26.92;15.15;;;;;;;5.88;86.98;101444.28;5007482;28;20041;-84
2021/10/11 03:03:58;;;;;;;25.38;15.95;;;;;;;5.84;86.66;101457.41;4999444;28;20087;-83
2021/10/11 03:06:25;;;;;;;26.63;14.23;;;;;;;5.73;88.00;101448.16;4998731;28;20233;-79
2021/10/11 03:08:55;;;;;;;24.38;14.38;;;;;;;5.81;86.64;101441.81;5016309;28;20083;-80
2021/10/11 03:11:22;;;;;;;24.63;14.80;;;;;;;5.71;87.56;101439.47;5012810;28;20047;-81
2021/10/11 03:13:49;;;;;;;20.73;14.05;;;;;;;5.79;86.56;101432.31;5015381;28;20463;-82
2021/10/11 03:16:17;;;;;;;26.65;15.82;;;;;;;5.90;86.34;101432.91;4980896;28;20042;-82
2021/10/11 03:18:44;;;;;;;21.73;14.50;;;;;;;5.73;86.90;101424.63;5016539;28;20061;-79
2021/10/11 03:21:16;;;;;;;20.85;13.65;;;;;;;5.66;86.75;101417.84;5035205;28;20456;-81
2021/10/11 03:23:44;;;;;;;21.17;13.77;;;;;;;5.86;86.63;101428.66;5014115;28;20052;-80
2021/10/11 03:26:11;;;;;;;24.02;15.25;;;;;;;5.90;85.74;101417.22;4976913;28;20064;-82
2021/10/11 03:28:38;;;;;;;25.85;15.68;;;;;;;5.64;86.74;101414.44;5014046;28;20057;-81
2021/10/11 03:31:06;;;;;;;29.63;16.05;;;;;;;5.31;87.87;101411.75;5028143;28;20112;-84
2021/10/11 03:33:33;;;;;;;27.98;14.95;;;;;;;5.62;87.43;101411.84;5011537;28;20534;-81
2021/10/11 03:36:01;;;;;;;27.63;17.10;;;;;;;5.86;84.80;101401.66;5020899;28;20102;-81
2021/10/11 03:38:28;;;;;;;28.02;16.55;;;;;;;6.03;84.34;101404.66;5009773;28;20155;-84
2021/10/11 03:40:55;;;;;;;29.77;17.23;;;;;;;5.88;85.48;101403.31;5016931;28;20091;-79
2021/10/11 03:43:22;;;;;;;38.13;20.35;;;;;;;5.86;84.55;101412.13;5008433;28;20152;-82
2021/10/11 03:45:50;;;;;;;34.50;19.73;;;;;;;5.76;85.34;101412.34;5001048;28;20059;-79
2021/10/11 03:48:17;;;;;;;29.08;18.50;;;;;;;5.66;85.62;101410.84;5035042;28;20096;-83
2021/10/11 03:50:46;;;;;;;34.40;19.95;;;;;;;5.75;85.72;101410.63;5004206;28;20044;-79
2021/10/11 03:53:13;;;;;;;31.85;18.50;;;;;;;5.56;85.62;101407.63;5026175;28;20161;-84
2021/10/11 03:55:41;;;;;;;26.83;16.30;;;;;;;5.78;85.12;101407.09;5027351;28;20148;-81
2021/10/11 03:58:09;;;;;;;30.63;16.73;;;;;;;5.82;84.82;101404.34;5006503;28;20048;-82
2021/10/11 04:00:36;;;;;;;24.90;16.73;;;;;;;5.83;85.18;101405.19;5019712;28;20065;-83
2021/10/11 04:03:07;;;;;;;28.60;16.92;;;;;;;5.99;84.29;101401.31;5007773;28;20064;-82
2021/10/11 04:05:40;;;;;;;27.90;14.35;;;;;;;5.97;84.21;101400.47;5005949;28;20053;-81
2021/10/11 04:08:34;;;;;;;27.95;15.52;;;;;;;6.07;83.46;101399.31;5009248;28;20063;-81
2021/10/11 04:11:03;;;;;;;24.13;14.20;;;;;;;5.73;85.15;101399.38;5015253;28;20048;-81
2021/10/11 04:13:32;;;;;;;28.67;16.55;;;;;;;5.73;85.59;101404.59;5028104;28;20140;-79
2021/10/11 04:15:59;;;;;;;24.77;14.10;;;;;;;5.81;85.36;101401.78;5010693;28;20056;-81
2021/10/11 04:18:26;;;;;;;23.98;14.30;;;;;;;5.89;84.92;101405.03;5026605;28;20056;-78
2021/10/11 04:20:54;;;;;;;22.25;13.88;;;;;;;5.82;85.03;101403.50;4996712;28;20121;-78
2021/10/11 04:23:21;;;;;;;30.60;15.55;;;;;;;5.55;86.45;101408.53;5024929;28;20633;-80
2021/10/11 04:25:48;;;;;;;27.58;16.02;;;;;;;5.29;89.15;101400.50;5009886;28;20491;-81
2021/10/11 04:28:15;;;;;;;22.88;14.88;;;;;;;5.44;89.94;101397.50;5011761;28;20152;-83
2021/10/11 04:30:44;;;;;;;24.42;16.02;;;;;;;5.43;89.57;101405.38;5005666;28;20128;-81
2021/10/11 04:33:12;;;;;;;20.08;14.32;;;;;;;5.65;88.47;101403.06;5028687;28;20115;-84
2021/10/11 04:35:39;;;;;;;24.42;15.55;;;;;;;5.43;89.82;101403.63;5024049;28;20133;-83
2021/10/11 04:38:06;;;;;;;23.65;14.68;;;;;;;5.19;91.45;101407.69;5016343;28;20140;-81
2021/10/11 04:40:36;;;;;;;25.80;15.43;;;;;;;5.53;89.77;101401.63;5027242;28;20392;-81
2021/10/11 04:43:03;;;;;;;27.20;15.13;;;;;;;5.78;88.38;101394.00;5016195;28;20049;-83
2021/10/11 04:45:31;;;;;;;26.85;14.27;;;;;;;5.51;88.78;101382.53;5014568;28;20072;-81
2021/10/11 04:48:04;;;;;;;22.80;14.30;;;;;;;5.57;89.24;101385.84;5013149;28;20049;-80
2021/10/11 04:50:33;;;;;;;21.83;15.00;;;;;;;5.45;90.39;101383.56;4992164;28;20127;-79
2021/10/11 04:53:01;;;;;;;26.13;14.07;;;;;;;5.57;90.82;101384.97;5028919;28;20496;-81
2021/10/11 04:55:28;;;;;;;21.90;13.52;;;;;;;5.77;90.15;101381.84;5023697;28;20136;-80
2021/10/11 04:58:00;;;;;;;24.05;14.70;;;;;;;5.89;88.20;101389.34;5008496;28;20049;-83
2021/10/11 05:00:29;;;;;;;23.10;14.25;;;;;;;5.75;89.49;101391.47;5005762;28;20045;-82
2021/10/11 05:02:57;;;;;;;25.65;14.68;;;;;;;5.85;89.07;101390.31;5012498;28;20076;-79
2021/10/11 05:05:24;;;;;;;23.02;13.80;;;;;;;5.69;89.96;101391.66;5010383;28;20443;-80
2021/10/11 05:07:51;;;;;;;27.60;14.70;;;;;;;5.90;88.46;101379.75;5021033;28;20091;-80
2021/10/11 05:10:19;;;;;;;23.05;14.82;;;;;;;5.90;88.98;101380.63;5026045;28;20132;-81
2021/10/11 05:12:46;;;;;;;23.45;13.20;;;;;;;5.97;87.89;101386.56;5006773;28;20112;-79
2021/10/11 05:15:14;;;;;;;26.88;14.90;;;;;;;5.72;89.50;101381.97;5003949;28;20053;-83
2021/10/11 05:17:41;;;;;;;21.15;13.55;;;;;;;5.98;88.84;101372.59;5021086;28;20136;-80
2021/10/11 05:20:09;;;;;;;25.05;15.20;;;;;;;6.06;87.77;101374.09;5029166;28;20479;-81
2021/10/11 05:22:37;;;;;;;23.98;14.68;;;;;;;5.84;89.34;101378.16;5038687;28;20052;-78
2021/10/11 05:25:05;;;;;;;26.63;15.15;;;;;;;5.69;90.45;101371.59;4999286;28;20087;-81
2021/10/11 05:27:33;;;;;;;24.52;14.75;;;;;;;5.94;89.31;101370.94;5014548;28;20162;-78
2021/10/11 05:30:02;;;;;;;23.13;13.50;;;;;;;6.16;88.10;101372.06;5015635;28;20045;-81
2021/10/11 05:32:31;;;;;;;23.88;14.68;;;;;;;6.33;87.81;101379.44;5030776;28;20071;-82
2021/10/11 05:34:58;;;;;;;37.28;21.45;;;;;;;6.21;87.52;101383.25;5020554;28;20239;-82
2021/10/11 05:37:29;;;;;;;27.92;13.75;;;;;;;6.31;87.45;101371.63;5026184;28;20105;-81
2021/10/11 05:39:57;;;;;;;22.98;13.38;;;;;;;6.42;86.78;101367.84;5011775;28;20076;-83
2021/10/11 05:42:24;;;;;;;22.88;13.27;;;;;;;6.47;86.57;101366.78;4990683;28;20231;-82
2021/10/11 05:44:52;;;;;;;22.65;13.98;;;;;;;6.39;87.82;101378.38;4992856;28;20038;-80
2021/10/11 05:47:19;;;;;;;27.63;15.70;;;;;;;6.24;88.17;101366.63;5022088;28;20034;-83
2021/10/11 05:49:46;;;;;;;27.45;15.85;;;;;;;6.34;88.80;101374.16;4981999;28;20063;-81
2021/10/11 05:52:13;;;;;;;25.10;14.32;;;;;;;6.42;88.35;101373.94;5021324;28;20046;-82
2021/10/11 05:54:40;;;;;;;25.42;14.57;;;;;;;6.40;88.84;101373.13;5013508;28;20465;-81
2021/10/11 05:57:08;;;;;;;26.00;14.93;;;;;;;6.31;88.21;101376.88;5017196;28;20132;-81
2021/10/11 05:59:35;;;;;;;25.45;15.45;;;;;;;6.47;87.66;101379.88;4991866;28;20049;-81
2021/10/11 06:02:05;;;;;;;20.73;14.57;;;;;;;6.55;87.79;101377.03;5033111;28;20049;-80
2021/10/11 06:04:32;;;;;;;28.60;16.40;;;;;;;6.58;87.57;101384.81;5012679;28;20920;-79
2021/10/11 06:07:00;;;;;;;26.90;15.07;;;;;;;6.50;88.07;101384.16;5034809;28;20053;-82
2021/10/11 06:09:28;;;;;;;21.88;13.73;;;;;;;6.54;88.32;101385.78;5001916;28;20041;-83
2021/10/11 06:11:56;;;;;;;25.33;16.10;;;;;;;6.66;87.47;101380.16;5015940;28;20132;-83
2021/10/11 06:14:26;;;;;;;21.95;14.63;;;;;;;6.61;87.51;101374.22;5041378;28;20919;-80
2021/10/11 06:16:58;;;;;;;25.88;15.57;;;;;;;6.78;87.25;101376.31;5012652;28;20068;-84
2021/10/11 06:19:26;;;;;;;24.73;14.68;;;;;;;6.89;86.42;101369.00;5005900;28;20494;-81
2021/10/11 06:21:58;;;;;;;26.52;15.30;;;;;;;6.80;86.76;101369.31;5008718;28;20073;-78
2021/10/11 06:24:27;;;;;;;26.27;14.88;;;;;;;6.86;86.92;101371.72;5014813;28;20127;-83
2021/10/11 06:26:55;;;;;;;26.15;15.20;;;;;;;6.89;86.84;101376.88;5010521;28;20053;-81
2021/10/11 06:29:27;;;;;;;28.65;15.48;;;;;;;6.86;86.59;101384.81;4998396;28;20088;-81
2021/10/11 06:31:56;;;;;;;27.52;15.40;;;;;;;6.95;86.43;101384.50;5035813;28;20045;-85
2021/10/11 06:34:24;;;;;;;28.98;15.45;;;;;;;6.92;87.02;101387.22;5015443;28;20060;-83
2021/10/11 06:36:53;;;;;;;26.27;15.93;;;;;;;7.00;86.64;101384.38;5006424;28;20520;-84
2021/10/11 06:39:22;;;;;;;30.75;16.92;;;;;;;7.06;86.92;101381.53;4997126;28;20046;-84
2021/10/11 06:41:54;;;;;;;32.13;17.27;;;;;;;7.13;87.28;101392.69;5013979;28;20053;-82
2021/10/11 06:44:24;;;;;;;27.10;15.05;;;;;;;7.35;86.34;101391.06;5039084;28;20061;-79
2021/10/11 06:46:52;;;;;;;29.05;16.27;;;;;;;7.33;86.40;101383.25;5026775;28;20098;-80
2021/10/11 06:49:20;;;;;;;27.83;15.50;;;;;;;7.61;85.89;101391.06;5021900;28;20769;-82
2021/10/11 06:51:48;;;;;;;29.10;16.70;;;;;;;7.78;86.06;101377.34;5033106;28;20041;-86
2021/10/11 06:54:15;;;;;;;32.10;15.85;;;;;;;7.63;85.35;101384.91;5019692;28;20101;-81
2021/10/11 06:56:44;;;;;;;30.48;16.95;;;;;;;7.75;85.24;101389.72;5029352;28;20408;-80
2021/10/11 06:59:12;;;;;;;27.48;16.73;;;;;;;7.69;85.77;101396.00;5025601;28;20113;-82
2021/10/11 07:01:39;;;;;;;29.83;17.95;;;;;;;7.83;85.63;101398.16;5030841;28;20128;-79
2021/10/11 07:04:32;;;;;;;28.10;16.75;;;;;;;7.82;86.32;101389.44;5018375;28;20147;-81
2021/10/11 07:07:07;;;;;;;32.35;16.80;;;;;;;7.86;85.63;101393.66;4992146;28;20053;-80
2021/10/11 07:09:36;;;;;;;27.55;18.80;;;;;;;7.91;85.47;101393.50;5018573;28;20142;-83
2021/10/11 07:12:07;;;;;;;27.42;17.73;;;;;;;8.04;85.23;101400.00;5024745;28;20045;-83
2021/10/11 07:14:37;;;;;;;28.35;17.33;;;;;;;8.03;85.99;101397.47;5028891;28;20135;-80
2021/10/11 07:17:06;;;;;;;32.22;19.17;;;;;;;8.09;85.31;101402.47;5048660;28;20080;-81
2021/10/11 07:19:45;;;;;;;26.58;17.55;;;;;;;8.19;85.81;101403.84;5014818;28;20068;-83
2021/10/11 07:22:16;;;;;;;32.47;16.83;;;;;;;8.40;85.35;101399.59;5026370;28;20049;-79
2021/10/11 07:24:47;;;;;;;33.17;17.63;;;;;;;8.46;85.11;101404.63;5002969;28;20025;-82
2021/10/11 07:27:16;;;;;;;37.53;18.65;;;;;;;8.54;85.68;101405.19;5023275;28;20594;-80
2021/10/11 07:29:49;;;;;;;39.40;19.30;;;;;;;8.63;84.96;101399.59;5008624;28;20037;-79
2021/10/11 07:32:19;;;;;;;31.38;18.33;;;;;;;8.77;83.71;101404.31;5011606;28;20109;-80
2021/10/11 07:34:50;;;;;;;31.60;19.40;;;;;;;8.71;84.97;101403.69;5030778;28;20495;-80
2021/10/11 07:37:21;;;;;;;42.05;21.98;;;;;;;8.69;85.59;101409.03;4991269;28;20100;-78
2021/10/11 07:39:49;;;;;;;35.50;21.45;;;;;;;8.69;86.11;101409.03;5043321;28;20605;-84
2021/10/11 07:42:18;;;;;;;34.65;21.38;;;;;;;8.56;87.10;101402.53;5045513;28;20045;-87
2021/10/11 07:44:46;;;;;;;36.55;22.23;;;;;;;8.59;86.15;101394.50;5066499;28;20024;-86
2021/10/11 07:47:14;;;;;;;35.33;23.60;;;;;;;8.71;86.48;101404.56;5038697;28;20029;-83
2021/10/11 07:49:42;;;;;;;38.72;22.77;;;;;;;8.78;87.02;101413.03;5022635;28;20076;-80
2021/10/11 07:52:15;;;;;;;40.67;24.02;;;;;;;8.55;87.49;101414.75;5026673;28;20133;-80
2021/10/11 07:54:43;;;;;;;40.83;24.92;;;;;;;8.70;87.41;101405.47;5036193;28;20075;-79
2021/10/11 07:57:15;;;;;;;48.63;25.92;;;;;;;8.74;88.96;101406.22;5032531;28;20053;-80
2021/10/11 07:59:43;;;;;;;43.88;26.27;;;;;;;8.79;88.98;101407.75;5004522;28;20073;-80
2021/10/11 08:02:19;;;;;;;50.58;27.23;;;;;;;8.90;88.92;101409.06;5014456;28;20050;-87
2021/10/11 08:04:47;;;;;;;45.10;27.35;;;;;;;8.95;88.64;101404.50;5005186;28;20041;-81
2021/10/11 08:07:15;;;;;;;49.50;27.40;;;;;;;9.17;88.44;101400.09;5013874;28;20048;-82
2021/10/11 08:09:44;;;;;;;46.38;27.95;;;;;;;9.28;88.37;101402.31;4993451;28;20589;-81
2021/10/11 08:12:12;;;;;;;52.88;29.58;;;;;;;9.31;88.00;101391.66;5006762;28;20562;-81
2021/10/11 08:14:42;;;;;;;50.92;29.42;;;;;;;9.24;88.68;101396.31;5001696;28;20593;-80
2021/10/11 08:17:09;;;;;;;47.20;29.25;;;;;;;9.13;90.48;101399.34;5034847;28;20140;-78
2021/10/11 08:19:46;;;;;;;49.90;28.23;;;;;;;9.18;91.29;101403.56;5003535;28;20522;-82
2021/10/11 08:22:19;;;;;;;52.72;27.63;;;;;;;9.15;91.26;101407.19;5040646;28;20133;-80
2021/10/11 08:24:50;;;;;;;43.28;26.40;;;;;;;9.17;91.88;101405.34;5008277;28;20046;-79
2021/10/11 08:27:22;;;;;;;53.08;28.75;;;;;;;9.11;92.44;101403.84;5028606;28;20049;-82
2021/10/11 08:29:54;;;;;;;45.33;28.85;;;;;;;9.07;93.85;101404.03;4988265;28;20084;-78
2021/10/11 08:32:26;;;;;;;46.92;27.75;;;;;;;9.13;94.13;101395.88;5014982;28;20506;-83
2021/10/11 08:34:58;;;;;;;48.38;28.60;;;;;;;9.22;94.70;101402.53;5004465;28;20037;-83
2021/10/11 08:37:26;;;;;;;49.58;30.33;;;;;;;8.91;96.59;101397.66;4993308;28;20180;-83
2021/10/11 08:39:54;;;;;;;44.67;27.85;;;;;;;8.91;96.96;101409.00;5006881;28;20091;-80
2021/10/11 08:42:28;;;;;;;51.53;29.73;;;;;;;9.03;97.26;101416.41;5041701;28;20033;-82
2021/10/11 08:44:59;;;;;;;46.72;29.00;;;;;;;9.46;94.70;101409.41;5016760;28;20037;-81
2021/10/11 08:47:28;;;;;;;53.72;29.50;;;;;;;9.59;93.96;101413.25;5043415;28;20038;-81
2021/10/11 08:49:56;;;;;;;47.10;29.40;;;;;;;9.79;93.03;101409.75;5035111;28;20128;-81
2021/10/11 08:52:24;;;;;;;53.58;29.25;;;;;;;10.03;91.33;101418.34;4999020;28;20081;-84
2021/10/11 08:54:53;;;;;;;50.72;28.80;;;;;;;9.83;91.66;101416.59;5020662;28;20519;-78
2021/10/11 08:57:29;;;;;;;42.72;26.10;;;;;;;9.71;93.06;101422.38;5025403;28;20043;-81
2021/10/11 09:00:10;;;;;;;39.50;24.75;;;;;;;10.07;91.95;101424.34;5019692;28;20049;-81
2021/10/11 09:02:52;;;;;;;47.72;27.10;;;;;;;10.10;91.66;101419.78;5036024;28;20508;-81
2021/10/11 09:05:32;;;;;;;41.50;26.90;;;;;;;10.24;90.71;101428.84;5016127;28;20439;-83
2021/10/11 09:08:04;;;;;;;46.45;24.70;;;;;;;10.09;91.27;101426.00;5007916;28;20086;-86
2021/10/11 09:10:55;;;;;;;50.63;26.60;;;;;;;10.32;90.72;101419.72;4995800;28;20041;-79
2021/10/11 09:13:45;;;;;;;41.00;25.70;;;;;;;10.09;91.34;101425.13;5020495;28;20057;-81
2021/10/11 09:16:26;;;;;;;42.05;25.73;;;;;;;10.80;88.69;101422.78;5016075;28;20084;-82
2021/10/11 09:19:19;;;;;;;37.92;24.83;;;;;;;10.61;88.56;101428.06;5009078;28;20144;-80
2021/10/11 09:21:53;;;;;;;39.35;24.30;;;;;;;11.06;86.35;101419.75;5023043;28;20044;-80
2021/10/11 09:24:21;;;;;;;36.85;23.05;;;;;;;11.41;85.04;101414.56;5041049;28;20057;-79
2021/10/11 09:26:59;;;;;;;40.13;24.65;;;;;;;11.38;84.18;101417.34;5047063;28;20069;-83
2021/10/11 09:29:44;;;;;;;38.63;23.20;;;;;;;11.33;84.45;101417.56;5026729;28;20124;-85
2021/10/11 09:32:30;;;;;;;42.30;23.85;;;;;;;11.09;85.30;101416.16;5011220;28;20049;-82
2021/10/11 09:35:21;;;;;;;44.90;24.73;;;;;;;11.33;84.60;101416.72;5021001;28;20077;-83
2021/10/11 09:37:52;;;;;;;39.58;24.38;;;;;;;11.69;82.72;101418.44;5004633;28;20455;-82
2021/10/11 09:40:25;;;;;;;38.95;24.02;;;;;;;11.75;83.54;101418.13;5002306;28;20037;-85
2021/10/11 09:42:57;;;;;;;44.63;23.58;;;;;;;12.08;81.33;101419.06;5020233;28;20057;-87
2021/10/11 09:45:31;;;;;;;;;;;;;;;12.74;79.62;101412.84;5035748;28;20048;-80
2021/10/11 09:48:05;;;;;;;39.33;23.95;;;;;;;12.89;77.78;101427.00;5002606;28;20622;-82
2021/10/11 09:50:34;;;;;;;38.28;23.15;;;;;;;12.55;79.47;101420.94;4995191;28;20044;-84
2021/10/11 09:53:03;;;;;;;39.72;22.38;;;;;;;12.73;79.47;101419.06;4991598;28;20045;-84
2021/10/11 09:55:33;;;;;;;32.95;22.25;;;;;;;12.49;80.16;101420.44;4985269;28;20041;-81
2021/10/11 09:58:01;;;;;;;36.75;21.15;;;;;;;11.72;83.94;101410.38;5012894;28;20068;-85
2021/10/11 10:00:31;;;;;;;36.17;21.40;;;;;;;12.37;82.34;101403.44;5010249;28;20045;-85
2021/10/11 10:02:59;;;;;;;37.13;24.08;;;;;;;12.33;81.36;101402.75;5007157;28;20591;-85
2021/10/11 10:05:34;;;;;;;38.67;23.02;;;;;;;12.15;82.84;101398.47;5005470;28;20080;-88
2021/10/11 10:08:11;;;;;;;34.80;24.80;;;;;;;11.69;85.58;101399.97;5007800;28;20157;-87
2021/10/11 10:10:39;;;;;;;45.15;22.48;;;;;;;11.72;86.09;101405.09;4985826;28;20448;-84
2021/10/11 10:13:19;;;;;;;49.30;23.88;;;;;;;12.20;84.36;101404.34;5021016;28;20048;-82
2021/10/11 10:15:48;;;;;;;42.17;23.77;;;;;;;11.77;85.85;101411.84;5021533;28;20072;-80
2021/10/11 10:18:18;;;;;;;41.55;24.77;;;;;;;11.69;86.41;101405.25;4987649;28;20064;-84
2021/10/11 10:20:54;;;;;;;42.88;23.60;;;;;;;11.60;87.75;101410.06;5018002;28;20047;-83
2021/10/11 10:23:53;;;;;;;43.33;23.80;;;;;;;12.04;85.21;101403.47;5018698;28;20143;-80
2021/10/11 10:26:34;;;;;;;42.72;23.13;;;;;;;12.37;84.34;101406.09;5014107;28;20041;-83
2021/10/11 10:29:19;;;;;;;33.15;20.70;;;;;;;12.38;83.35;101394.56;5042233;28;20584;-85
2021/10/11 10:31:46;;;;;;;41.20;22.35;;;;;;;11.97;86.42;101396.78;5032397;28;20053;-82
2021/10/11 10:34:16;;;;;;;42.15;21.50;;;;;;;11.77;87.77;101392.53;5029315;28;20079;-83
2021/10/11 10:36:45;;;;;;;37.95;18.48;;;;;;;12.01;85.99;101388.63;5024657;28;20464;-79
2021/10/11 10:39:14;;;;;;;40.78;20.95;;;;;;;12.05;85.45;101391.97;5039675;28;20037;-87
2021/10/11 10:41:56;;;;;;;30.30;16.92;;;;;;;12.19;84.95;101385.97;5028502;28;20041;-83
2021/10/11 10:44:28;;;;;;;38.22;18.52;;;;;;;12.33;84.17;101386.91;4999567;28;20042;-82
2021/10/11 10:46:59;;;;;;;42.78;19.42;;;;;;;12.41;83.96;101384.72;5007040;28;20547;-80
2021/10/11 10:49:35;;;;;;;35.03;18.85;;;;;;;12.48;83.61;101377.31;5037027;28;20049;-80
2021/10/11 10:52:16;;;;;;;34.10;17.77;;;;;;;12.57;83.33;101375.97;5025651;28;20498;-81
2021/10/11 10:54:49;;;;;;;40.03;19.27;;;;;;;12.37;83.42;101367.31;5016833;28;20439;-79
2021/10/11 10:57:19;;;;;;;27.38;14.93;;;;;;;12.21;83.36;101368.25;5035224;28;20131;-80
2021/10/11 10:59:54;;;;;;;34.55;14.95;;;;;;;12.31;83.69;101362.38;5046751;28;20057;-80
2021/10/11 11:02:29;;;;;;;30.52;15.80;;;;;;;12.72;82.39;101367.19;5016267;28;20113;-86
2021/10/11 11:05:06;;;;;;;31.05;17.38;;;;;;;12.95;80.98;101359.75;5008831;28;20052;-80
2021/10/11 11:07:37;;;;;;;36.00;16.35;;;;;;;12.92;80.96;101358.09;5010254;28;20055;-81
2021/10/11 11:10:20;;;;;;;29.40;12.07;;;;;;;12.82;79.96;101354.28;5004483;28;20579;-87
2021/10/11 11:12:58;;;;;;;20.77;11.13;;;;;;;12.84;80.43;101355.94;5027817;28;20045;-80
2021/10/11 11:15:28;;;;;;;24.00;12.15;;;;;;;12.94;79.50;101356.25;5026757;28;20033;-82
2021/10/11 11:18:00;;;;;;;27.70;11.77;;;;;;;13.13;79.31;101356.03;4992876;28;20269;-79
2021/10/11 11:20:30;;;;;;;26.88;12.18;;;;;;;13.39;78.13;101349.25;5014419;28;20045;-81
2021/10/11 11:23:07;;;;;;;47.53;12.88;;;;;;;13.73;76.29;101352.53;5025387;28;20124;-86
2021/10/11 11:25:42;;;;;;;30.10;11.13;;;;;;;13.70;75.54;101345.63;4997084;28;20041;-77
2021/10/11 11:28:18;;;;;;;31.98;10.38;;;;;;;14.23;74.37;101356.50;4992823;28;20049;-79